createdAt,value
2019-02-21T00:04:17.830Z,19.87
2019-02-21T00:09:13.606Z,20.33
2019-02-21T00:14:09.504Z,20.23
2019-02-21T00:19:05.327Z,19.07
2019-02-21T00:24:01.305Z,19.57
2019-02-21T00:28:57.226Z,21.00
2019-02-21T00:33:53.101Z,20.13
2019-02-21T00:38:48.883Z,20.47
2019-02-21T00:43:45.870Z,21.50
2019-02-21T00:48:41.726Z,20.73
2019-02-21T00:53:37.610Z,20.80
2019-02-21T00:58:46.880Z,21.67
2019-02-21T01:03:42.802Z,21.83
2019-02-21T01:08:38.644Z,21.80
2019-02-21T01:13:34.546Z,21.37
2019-02-21T01:18:32.887Z,20.13
2019-02-21T01:23:30.195Z,22.60
2019-02-21T01:28:25.985Z,19.90
2019-02-21T01:33:24.573Z,23.50
2019-02-21T01:38:20.479Z,24.30
2019-02-21T01:43:16.264Z,23.47
2019-02-21T01:48:13.793Z,21.63
2019-02-21T01:53:13.536Z,20.80
2019-02-21T01:58:11.812Z,20.00
2019-02-21T02:03:12.417Z,19.77
2019-02-21T02:08:13.044Z,17.67
2019-02-21T02:13:23.691Z,18.97
2019-02-21T02:18:09.440Z,19.30
2019-02-21T02:23:05.378Z,19.80
2019-02-21T02:28:10.220Z,19.50
2019-02-21T02:33:09.051Z,18.30
2019-02-21T02:38:06.683Z,19.03
2019-02-21T02:43:02.493Z,19.57
2019-02-21T02:48:04.317Z,19.10
2019-02-21T02:53:00.211Z,19.13
2019-02-21T02:57:58.896Z,19.40
2019-02-21T03:02:54.778Z,20.63
2019-02-21T03:07:55.524Z,20.03
2019-02-21T03:12:54.838Z,20.30
2019-02-21T03:17:51.011Z,23.13
2019-02-21T03:22:47.391Z,22.70
2019-02-21T03:27:43.351Z,21.70
2019-02-21T03:32:39.331Z,22.47
2019-02-21T03:37:35.141Z,21.53
2019-02-21T03:42:31.009Z,22.50
2019-02-21T03:47:26.914Z,22.23
2019-02-21T03:52:22.731Z,19.90
2019-02-21T03:57:18.607Z,19.13
2019-02-21T04:02:14.540Z,17.97
2019-02-21T04:07:10.403Z,19.60
2019-02-21T04:12:06.217Z,21.70
2019-02-21T04:17:02.064Z,21.50
2019-02-21T04:21:57.893Z,20.90
2019-02-21T04:26:53.736Z,21.80
2019-02-21T04:31:49.529Z,22.07
2019-02-21T04:36:45.341Z,21.90
2019-02-21T04:41:41.274Z,21.80
2019-02-21T04:46:37.164Z,22.27
2019-02-21T04:51:33.112Z,22.60
2019-02-21T04:56:30.499Z,23.47
2019-02-21T05:01:26.400Z,21.03
2019-02-21T05:06:22.244Z,22.53
2019-02-21T05:11:18.196Z,21.23
2019-02-21T05:16:14.264Z,22.93
2019-02-21T05:21:10.072Z,22.37
2019-02-21T05:26:06.317Z,21.80
2019-02-21T05:31:20.977Z,22.83
2019-02-21T05:36:53.673Z,24.13
2019-02-21T05:42:08.322Z,20.60
2019-02-21T05:47:28.929Z,20.10
2019-02-21T05:52:36.063Z,19.77
2019-02-21T05:58:00.006Z,20.50
2019-02-21T06:03:07.673Z,20.83
2019-02-21T06:08:10.208Z,21.33
2019-02-21T06:13:36.824Z,21.00
2019-02-21T06:18:58.430Z,19.90
2019-02-21T06:24:04.247Z,18.60
2019-02-21T06:29:06.385Z,20.33
2019-02-21T06:34:02.358Z,19.37
2019-02-21T06:38:58.348Z,19.80
2019-02-21T06:43:56.845Z,19.03
2019-02-21T06:48:54.385Z,19.30
2019-02-21T06:53:50.632Z,20.27
2019-02-21T06:58:47.835Z,20.50
2019-02-21T07:03:43.675Z,21.83
2019-02-21T07:08:40.206Z,22.17
2019-02-21T07:13:40.464Z,21.50
2019-02-21T07:18:40.843Z,20.80
2019-02-21T07:23:43.541Z,19.90
2019-02-21T07:28:34.296Z,20.13
2019-02-21T07:33:30.317Z,19.33
2019-02-21T07:38:26.342Z,20.27
2019-02-21T07:43:25.980Z,18.33
2019-02-21T07:48:24.154Z,18.87
2019-02-21T07:53:20.689Z,15.17
2019-02-21T07:58:19.680Z,19.67
2019-02-21T08:03:15.626Z,17.17
2019-02-21T08:08:11.688Z,17.53
2019-02-21T08:13:09.602Z,18.87
2019-02-21T08:18:07.315Z,19.57
2019-02-21T08:23:03.290Z,20.50
2019-02-21T08:27:59.134Z,17.20
2019-02-21T08:33:29.592Z,18.93
2019-02-21T08:38:26.708Z,18.00
2019-02-21T08:43:23.234Z,17.83
2019-02-21T08:48:26.910Z,18.30
2019-02-21T08:53:22.801Z,19.50
2019-02-21T08:58:18.997Z,18.03
2019-02-21T09:03:17.908Z,19.37
2019-02-21T09:08:12.484Z,19.43
2019-02-21T09:13:08.509Z,20.03
2019-02-21T09:18:05.002Z,17.60
2019-02-21T09:23:01.672Z,19.87
2019-02-21T09:27:59.779Z,21.07
2019-02-21T09:32:55.094Z,21.00
2019-02-21T09:37:51.017Z,21.37
2019-02-21T09:42:46.852Z,23.07
2019-02-21T09:47:42.731Z,23.67
2019-02-21T09:52:38.613Z,23.77
2019-02-21T09:57:34.415Z,24.67
2019-02-21T10:02:30.362Z,26.30
2019-02-21T10:07:26.318Z,25.80
2019-02-21T10:12:22.430Z,25.83
2019-02-21T10:17:18.455Z,30.87
2019-02-21T10:22:14.390Z,32.03
2019-02-21T10:27:10.314Z,33.07
2019-02-21T10:32:06.130Z,31.47
2019-02-21T10:37:01.972Z,32.93
2019-02-21T10:41:57.878Z,29.07
2019-02-21T10:46:53.746Z,26.33
2019-02-21T10:51:49.595Z,28.13
2019-02-21T10:56:45.578Z,23.37
2019-02-21T11:01:41.462Z,21.53
2019-02-21T11:06:37.398Z,22.80
2019-02-21T11:11:34.466Z,21.50
2019-02-21T11:16:30.367Z,21.00
2019-02-21T11:21:26.872Z,22.75
2019-02-21T11:26:23.045Z,28.00
2019-02-21T11:31:19.082Z,25.63
2019-02-21T11:36:15.108Z,18.77
2019-02-21T11:41:11.198Z,21.87
2019-02-21T11:46:08.474Z,21.90
2019-02-21T11:51:04.409Z,23.73
2019-02-21T11:56:00.349Z,27.30
2019-02-21T12:00:56.317Z,26.20
2019-02-21T12:05:52.090Z,23.97
2019-02-21T12:10:50.669Z,23.80
2019-02-21T12:15:45.948Z,23.90
2019-02-21T12:20:42.011Z,24.17
2019-02-21T12:25:37.890Z,23.20
2019-02-21T12:30:33.836Z,24.10
2019-02-21T12:35:30.323Z,25.77
2019-02-21T12:40:26.451Z,24.23
2019-02-21T12:45:23.855Z,24.60
2019-02-21T12:50:19.809Z,24.37
2019-02-21T12:55:26.910Z,25.20
2019-02-21T13:00:19.742Z,24.37
2019-02-21T13:05:15.735Z,25.00
2019-02-21T13:10:14.243Z,26.33
2019-02-21T13:15:12.148Z,25.53
2019-02-21T13:20:11.159Z,26.80
2019-02-21T13:25:07.783Z,27.33
2019-02-21T13:30:05.704Z,26.33
2019-02-21T13:35:01.542Z,25.83
2019-02-21T13:39:57.375Z,25.67
2019-02-21T13:44:53.276Z,24.60
2019-02-21T13:49:49.057Z,23.67
2019-02-21T13:54:44.885Z,24.30
2019-02-21T13:59:42.373Z,24.23
2019-02-21T14:04:38.232Z,23.13
2019-02-21T14:09:34.021Z,23.47
2019-02-21T14:14:30.933Z,24.97
2019-02-21T14:19:26.842Z,23.77
2019-02-21T14:24:22.727Z,23.90
2019-02-21T14:29:18.516Z,22.97
2019-02-21T14:34:15.530Z,22.53
2019-02-21T14:39:11.957Z,20.47
2019-02-21T14:44:07.984Z,20.97
2019-02-21T14:49:03.836Z,19.13
2019-02-21T14:53:59.730Z,19.83
2019-02-21T14:58:55.626Z,17.37
2019-02-21T15:03:51.601Z,18.57
2019-02-21T15:08:47.817Z,15.90
2019-02-21T15:13:43.635Z,16.27
2019-02-21T15:18:42.367Z,15.60
2019-02-21T15:23:38.309Z,15.27
2019-02-21T15:28:34.139Z,13.93
2019-02-21T15:33:29.976Z,15.17
2019-02-21T15:44:37.312Z,12.03
2019-02-21T15:49:33.140Z,12.17
2019-02-21T15:54:29.201Z,11.00
2019-02-21T15:59:25.034Z,10.33
2019-02-21T16:04:21.057Z,9.97
2019-02-21T16:09:17.614Z,10.97
2019-02-21T16:14:13.476Z,11.57
2019-02-21T16:19:09.453Z,11.73
2019-02-21T16:24:08.615Z,11.87
2019-02-21T16:29:04.613Z,11.83
2019-02-21T16:34:00.613Z,13.97
2019-02-21T16:38:58.696Z,14.10
2019-02-21T16:43:54.550Z,13.50
2019-02-21T16:48:50.414Z,14.60
2019-02-21T16:53:46.218Z,18.77
2019-02-21T16:58:42.961Z,18.33
2019-02-21T17:03:38.897Z,20.30
2019-02-21T17:08:34.757Z,18.27
2019-02-21T17:13:30.959Z,20.07
2019-02-21T17:18:26.885Z,20.27
2019-02-21T17:23:23.270Z,19.00
2019-02-21T17:28:22.494Z,19.30
2019-02-21T17:33:18.453Z,18.37
2019-02-21T17:38:14.585Z,15.80
2019-02-21T17:43:11.664Z,16.50
2019-02-21T17:48:07.571Z,15.20
2019-02-21T17:53:03.616Z,16.17
2019-02-21T17:57:59.440Z,16.83
2019-02-21T18:02:55.300Z,16.03
2019-02-21T18:07:54.219Z,15.73
2019-02-21T18:12:50.454Z,14.20
2019-02-21T18:17:46.423Z,15.63
2019-02-21T18:22:42.410Z,15.57
2019-02-21T18:27:38.437Z,16.67
2019-02-21T18:32:34.516Z,15.53
2019-02-21T18:37:35.230Z,15.87
2019-02-21T18:42:32.641Z,15.23
2019-02-21T18:47:28.540Z,15.53
2019-02-21T18:52:24.389Z,15.60
2019-02-21T18:57:20.965Z,23.27
2019-02-21T19:02:19.822Z,22.13
2019-02-21T19:07:16.698Z,17.97
2019-02-21T19:12:13.762Z,17.20
2019-02-21T19:17:11.451Z,17.13
2019-02-21T19:22:07.510Z,17.17
2019-02-21T19:27:03.565Z,17.00
2019-02-21T19:32:01.674Z,20.70
2019-02-21T19:36:57.811Z,17.60
2019-02-21T19:41:53.830Z,18.50
2019-02-21T19:46:50.057Z,17.80
2019-02-21T19:51:46.191Z,16.80
2019-02-21T19:56:42.140Z,16.53
2019-02-21T20:01:38.330Z,15.43
2019-02-21T20:06:34.998Z,17.60
2019-02-21T20:11:30.992Z,16.50
2019-02-21T20:16:26.890Z,15.20
2019-02-21T20:21:29.182Z,14.27
2019-02-21T20:26:25.179Z,16.13
2019-02-21T20:31:21.069Z,15.73
2019-02-21T20:36:16.994Z,14.10
2019-02-21T20:41:12.985Z,16.03
2019-02-21T20:46:08.923Z,13.73
2019-02-21T20:51:04.811Z,12.63
2019-02-21T20:56:00.701Z,12.73
2019-02-21T21:00:57.605Z,13.60
2019-02-21T21:05:53.542Z,12.93
2019-02-21T21:10:49.502Z,16.30
2019-02-21T21:15:45.384Z,14.93
2019-02-21T21:20:41.320Z,14.93
2019-02-21T21:25:37.144Z,14.87
2019-02-21T21:30:33.356Z,15.13
2019-02-21T21:35:29.239Z,14.30
2019-02-21T21:40:25.290Z,14.33
2019-02-21T21:45:21.861Z,15.27
2019-02-21T21:50:18.601Z,13.43
2019-02-21T21:55:14.658Z,13.43
2019-02-21T22:00:17.863Z,14.27
2019-02-21T22:05:13.479Z,15.53
2019-02-21T22:10:10.409Z,16.37
2019-02-21T22:15:06.860Z,14.20
2019-02-21T22:20:02.718Z,14.33
2019-02-21T22:24:58.841Z,13.37
2019-02-21T22:29:54.857Z,13.87
2019-02-21T22:34:52.809Z,14.27
2019-02-21T22:39:48.772Z,12.63
2019-02-21T22:44:47.010Z,13.37
2019-02-21T22:49:44.105Z,12.83
2019-02-21T22:54:40.225Z,13.23
2019-02-21T22:59:36.259Z,11.80
2019-02-21T23:05:41.944Z,12.87
2019-02-21T23:10:37.803Z,13.37
2019-02-21T23:15:35.656Z,13.63
2019-02-21T23:20:31.211Z,13.33
2019-02-21T23:25:34.552Z,13.37
2019-02-21T23:30:34.729Z,14.03
2019-02-21T23:35:32.804Z,13.50
2019-02-21T23:40:29.879Z,12.37
2019-02-21T23:45:26.859Z,12.17
2019-02-21T23:50:24.273Z,12.70
2019-02-21T23:55:22.345Z,13.17
